createdAt,value
2022-08-08T00:02:03.355Z,0.40
2022-08-08T00:04:32.364Z,0.65
2022-08-08T00:07:40.067Z,0.50
2022-08-08T00:10:42.358Z,0.50
2022-08-08T00:14:17.042Z,0.50
2022-08-08T00:16:47.633Z,0.60
2022-08-08T00:19:40.417Z,0.77
2022-08-08T00:22:22.525Z,0.50
2022-08-08T00:24:56.506Z,0.50
2022-08-08T00:27:32.824Z,0.50
2022-08-08T00:30:11.219Z,0.60
2022-08-08T00:32:56.365Z,0.50
2022-08-08T00:35:50.436Z,0.57
2022-08-08T00:38:44.321Z,0.60
2022-08-08T00:41:54.580Z,0.70
2022-08-08T00:45:05.548Z,0.75
2022-08-08T00:48:06.286Z,0.55
2022-08-08T00:50:48.323Z,0.68
2022-08-08T00:53:57.188Z,0.47
2022-08-08T00:56:45.740Z,0.70
2022-08-08T00:59:44.183Z,0.60
2022-08-08T01:03:59.949Z,0.57
2022-08-08T01:05:59.710Z,0.80
2022-08-08T01:09:36.395Z,0.60
2022-08-08T01:12:19.941Z,0.45
2022-08-08T01:15:17.216Z,0.60
2022-08-08T01:18:25.356Z,0.70
2022-08-08T01:22:11.858Z,0.50
2022-08-08T01:24:54.198Z,0.80
2022-08-08T01:27:44.335Z,0.60
2022-08-08T01:30:42.164Z,0.70
2022-08-08T01:34:00.872Z,0.77
2022-08-08T01:36:51.216Z,0.50
2022-08-08T01:39:50.126Z,0.70
2022-08-08T01:42:51.371Z,0.70
2022-08-08T01:45:29.787Z,0.63
2022-08-08T01:48:31.472Z,0.75
2022-08-08T01:51:31.625Z,0.50
2022-08-08T01:55:19.105Z,0.60
2022-08-08T02:00:27.865Z,0.50
2022-08-08T02:03:50.510Z,0.80
2022-08-08T02:06:40.938Z,0.60
2022-08-08T02:10:03.472Z,0.60
2022-08-08T02:12:48.381Z,0.50
2022-08-08T02:15:29.457Z,0.60
2022-08-08T02:18:14.997Z,0.60
2022-08-08T02:21:18.114Z,0.73
2022-08-08T02:24:22.785Z,0.70
2022-08-08T02:27:01.079Z,0.60
2022-08-08T02:29:52.553Z,0.60
2022-08-08T02:32:35.411Z,0.85
2022-08-08T02:35:08.199Z,0.65
2022-08-08T02:37:57.120Z,0.80
2022-08-08T02:41:02.299Z,0.75
2022-08-08T02:44:39.009Z,0.70
2022-08-08T02:47:28.855Z,1.13
2022-08-08T02:50:39.950Z,0.63
2022-08-08T02:53:28.296Z,0.65
2022-08-08T02:56:45.999Z,0.80
2022-08-08T02:59:57.589Z,1.10
2022-08-08T03:03:08.053Z,1.17
2022-08-08T03:05:53.366Z,1.38
2022-08-08T03:09:00.385Z,1.20
2022-08-08T03:12:02.769Z,0.93
2022-08-08T03:15:56.271Z,0.77
2022-08-08T03:18:04.967Z,1.10
2022-08-08T03:20:43.903Z,0.98
2022-08-08T03:23:18.141Z,1.00
2022-08-08T03:25:47.035Z,1.10
2022-08-08T03:28:32.186Z,1.20
2022-08-08T03:31:25.277Z,1.20
2022-08-08T03:34:01.043Z,0.80
2022-08-08T03:36:31.459Z,0.80
2022-08-08T03:39:15.017Z,0.93
2022-08-08T03:42:13.224Z,1.00
2022-08-08T03:44:38.750Z,0.70
2022-08-08T03:47:20.087Z,0.95
2022-08-08T03:49:59.828Z,0.70
2022-08-08T03:52:36.683Z,0.85
2022-08-08T03:55:20.091Z,0.65
2022-08-08T03:58:35.256Z,0.60
2022-08-08T04:01:02.075Z,0.70
2022-08-08T04:03:57.574Z,0.60
2022-08-08T04:06:32.542Z,0.85
2022-08-08T04:09:06.704Z,0.70
2022-08-08T04:11:48.469Z,0.80
2022-08-08T04:14:36.375Z,0.70
2022-08-08T04:17:06.966Z,0.68
2022-08-08T04:19:51.934Z,1.25
2022-08-08T04:22:23.980Z,0.70
2022-08-08T04:24:52.795Z,0.68
2022-08-08T04:28:02.508Z,0.60
2022-08-08T04:30:18.536Z,0.80
2022-08-08T04:32:50.922Z,0.70
2022-08-08T04:35:22.446Z,0.60
2022-08-08T04:37:52.902Z,0.70
2022-08-08T04:40:25.342Z,0.80
2022-08-08T04:43:00.790Z,0.85
2022-08-08T04:45:33.981Z,0.90
2022-08-08T04:48:03.751Z,0.82
2022-08-08T04:50:38.484Z,0.80
2022-08-08T04:53:13.859Z,0.82
2022-08-08T04:56:01.416Z,0.90
2022-08-08T04:58:33.133Z,0.75
2022-08-08T05:01:05.885Z,0.77
2022-08-08T05:04:08.190Z,0.80
2022-08-08T05:06:30.993Z,0.73
2022-08-08T05:09:02.772Z,0.70
2022-08-08T05:11:38.610Z,0.90
2022-08-08T05:14:07.054Z,0.90
2022-08-08T05:16:54.722Z,0.80
2022-08-08T05:20:12.118Z,0.98
2022-08-08T05:22:12.128Z,0.70
2022-08-08T05:24:48.788Z,1.23
2022-08-08T05:27:20.149Z,0.85
2022-08-08T05:29:51.777Z,0.95
2022-08-08T05:32:27.234Z,0.90
2022-08-08T05:35:05.113Z,1.00
2022-08-08T05:37:53.460Z,1.30
2022-08-08T05:40:50.660Z,1.02
2022-08-08T05:44:02.548Z,1.02
2022-08-08T05:46:21.830Z,1.00
2022-08-08T05:48:54.548Z,0.95
2022-08-08T05:51:26.018Z,1.08
2022-08-08T05:54:27.477Z,1.10
2022-08-08T05:56:47.408Z,0.90
2022-08-08T05:59:58.682Z,1.00
2022-08-08T06:02:48.758Z,0.80
2022-08-08T06:05:33.756Z,0.80
2022-08-08T06:08:33.549Z,1.00
2022-08-08T06:11:00.243Z,1.02
2022-08-08T06:13:36.229Z,1.10
2022-08-08T06:16:18.811Z,1.00
2022-08-08T06:21:48.813Z,0.82
2022-08-08T06:24:31.109Z,0.98
2022-08-08T06:27:06.317Z,1.00
2022-08-08T06:30:00.730Z,0.50
2022-08-08T06:32:50.268Z,0.85
2022-08-08T06:36:09.181Z,0.88
2022-08-08T06:38:17.370Z,0.80
2022-08-08T06:40:54.033Z,0.88
2022-08-08T06:43:33.984Z,0.88
2022-08-08T06:46:13.222Z,0.80
2022-08-08T06:48:46.321Z,0.95
2022-08-08T06:51:16.124Z,0.68
2022-08-08T06:53:51.094Z,0.82
2022-08-08T06:56:31.269Z,0.60
2022-08-08T06:59:00.073Z,0.82
2022-08-08T07:02:28.012Z,0.70
2022-08-08T07:04:49.802Z,0.75
2022-08-08T07:07:55.199Z,0.70
2022-08-08T07:10:34.053Z,0.80
2022-08-08T07:13:10.348Z,1.02
2022-08-08T07:16:06.203Z,0.80
2022-08-08T07:19:17.894Z,0.60
2022-08-08T07:22:05.297Z,0.73
2022-08-08T07:24:54.360Z,0.70
2022-08-08T07:27:35.091Z,0.70
2022-08-08T07:30:25.857Z,0.63
2022-08-08T07:32:59.517Z,0.75
2022-08-08T07:35:30.782Z,0.50
2022-08-08T07:38:09.704Z,0.80
2022-08-08T07:40:45.693Z,0.50
2022-08-08T07:43:16.869Z,0.52
2022-08-08T07:46:17.355Z,0.95
2022-08-08T07:48:48.391Z,0.60
2022-08-08T07:51:23.840Z,0.50
2022-08-08T07:54:50.192Z,0.60
2022-08-08T07:57:48.240Z,0.47
2022-08-08T08:00:18.956Z,0.47
2022-08-08T08:03:23.241Z,0.50
2022-08-08T08:05:55.255Z,0.80
2022-08-08T08:08:50.469Z,0.73
2022-08-08T08:11:23.606Z,0.63
2022-08-08T08:14:10.573Z,0.73
2022-08-08T08:16:50.318Z,0.93
2022-08-08T08:19:21.250Z,0.83
2022-08-08T08:21:57.750Z,0.90
2022-08-08T08:24:39.648Z,0.98
2022-08-08T08:27:11.826Z,1.00
2022-08-08T08:29:43.465Z,0.75
2022-08-08T08:32:14.137Z,0.60
2022-08-08T08:35:00.504Z,0.65
2022-08-08T08:37:31.591Z,0.60
2022-08-08T08:40:02.907Z,0.50
2022-08-08T08:42:37.512Z,0.65
2022-08-08T08:45:23.229Z,0.70
2022-08-08T08:47:58.547Z,0.50
2022-08-08T08:50:35.182Z,0.60
2022-08-08T08:53:54.957Z,0.80
2022-08-08T08:56:08.481Z,0.40
2022-08-08T08:58:49.941Z,0.68
2022-08-08T09:01:33.679Z,0.50
2022-08-08T09:04:30.207Z,0.60
2022-08-08T09:06:59.191Z,0.60
2022-08-08T09:09:39.539Z,0.50
2022-08-08T09:12:17.614Z,0.52
2022-08-08T09:14:51.642Z,0.65
2022-08-08T09:17:40.934Z,0.90
2022-08-08T09:21:56.299Z,0.40
2022-08-08T09:23:05.005Z,0.90
2022-08-08T09:25:54.770Z,0.70
2022-08-08T09:28:37.299Z,0.50
2022-08-08T09:31:42.343Z,0.60
2022-08-08T09:34:30.932Z,0.50
2022-08-08T09:37:57.336Z,0.70
2022-08-08T09:40:10.815Z,0.40
2022-08-08T09:42:44.214Z,0.57
2022-08-08T09:46:02.069Z,0.50
2022-08-08T09:48:28.935Z,0.70
2022-08-08T09:51:05.359Z,0.70
2022-08-08T09:54:03.335Z,0.70
2022-08-08T09:56:44.495Z,0.50
2022-08-08T10:00:02.172Z,0.80
2022-08-08T10:02:12.934Z,0.90
2022-08-08T10:04:47.788Z,0.60
2022-08-08T10:07:17.008Z,0.77
2022-08-08T10:09:58.778Z,1.00
2022-08-08T10:12:54.260Z,0.73
2022-08-08T10:15:29.286Z,0.90
2022-08-08T10:18:10.152Z,0.70
2022-08-08T10:20:57.575Z,0.90
2022-08-08T10:23:42.090Z,0.68
2022-08-08T10:26:29.703Z,0.97
2022-08-08T10:29:06.733Z,0.95
2022-08-08T10:31:54.902Z,0.90
2022-08-08T10:34:24.791Z,0.63
2022-08-08T10:36:56.498Z,1.10
2022-08-08T10:39:31.705Z,1.15
2022-08-08T10:42:20.889Z,1.10
2022-08-08T10:44:49.389Z,0.93
2022-08-08T10:47:20.786Z,1.02
2022-08-08T10:50:01.223Z,0.80
2022-08-08T10:52:33.903Z,0.57
2022-08-08T10:55:07.110Z,0.95
2022-08-08T10:57:49.473Z,0.70
2022-08-08T11:00:25.982Z,0.68
2022-08-08T11:02:57.769Z,0.95
2022-08-08T11:05:38.903Z,0.88
2022-08-08T11:08:38.004Z,0.77
2022-08-08T11:11:31.657Z,1.00
2022-08-08T11:14:00.757Z,0.70
2022-08-08T11:16:34.413Z,1.20
2022-08-08T11:19:03.398Z,1.00
2022-08-08T11:21:41.256Z,0.85
2022-08-08T11:24:11.224Z,1.30
2022-08-08T11:26:56.385Z,1.10
2022-08-08T11:29:41.541Z,1.00
2022-08-08T11:32:15.002Z,1.00
2022-08-08T11:35:27.662Z,0.95
2022-08-08T11:38:35.087Z,1.20
2022-08-08T11:40:31.602Z,1.00
2022-08-08T11:43:00.622Z,1.17
2022-08-08T11:45:29.743Z,1.13
2022-08-08T11:48:09.758Z,0.70
2022-08-08T11:50:37.590Z,0.90
2022-08-08T11:53:06.183Z,0.90
2022-08-08T11:55:36.748Z,1.17
2022-08-08T11:58:15.238Z,0.93
2022-08-08T12:00:53.465Z,1.08
2022-08-08T12:03:21.359Z,1.55
2022-08-08T12:05:49.308Z,1.17
2022-08-08T12:08:17.618Z,1.30
2022-08-08T12:10:50.159Z,0.80
2022-08-08T12:13:33.512Z,1.30
2022-08-08T12:16:18.331Z,1.33
2022-08-08T12:18:49.995Z,0.93
2022-08-08T12:21:59.591Z,1.27
2022-08-08T12:24:28.071Z,1.15
2022-08-08T12:26:57.106Z,0.85
2022-08-08T12:29:40.934Z,1.10
2022-08-08T12:32:13.306Z,1.00
2022-08-08T12:34:48.524Z,1.10
2022-08-08T12:37:25.876Z,1.08
2022-08-08T12:40:24.202Z,0.98
2022-08-08T12:42:53.279Z,1.20
2022-08-08T12:45:58.580Z,0.88
2022-08-08T12:48:35.685Z,0.80
2022-08-08T12:51:04.608Z,0.80
2022-08-08T12:53:37.919Z,1.00
2022-08-08T12:56:19.116Z,1.15
2022-08-08T12:58:54.347Z,1.00
2022-08-08T13:01:36.954Z,1.25
2022-08-08T13:04:24.405Z,1.30
2022-08-08T13:06:56.288Z,1.40
2022-08-08T13:10:04.482Z,1.25
2022-08-08T13:12:44.480Z,1.40
2022-08-08T13:15:16.615Z,1.10
2022-08-08T13:18:09.484Z,1.20
2022-08-08T13:20:31.527Z,1.08
2022-08-08T13:23:31.186Z,0.90
2022-08-08T13:25:50.933Z,1.33
2022-08-08T13:28:32.273Z,1.30
2022-08-08T13:31:04.465Z,1.50
2022-08-08T13:33:42.588Z,1.60
2022-08-08T13:36:11.148Z,1.92
2022-08-08T13:38:39.960Z,1.63
2022-08-08T13:41:16.199Z,1.50
2022-08-08T13:43:49.728Z,1.90
2022-08-08T13:46:28.355Z,1.48
2022-08-08T13:50:32.144Z,1.48
2022-08-08T13:51:58.265Z,1.80
2022-08-08T13:54:29.317Z,1.75
2022-08-08T13:57:08.745Z,1.40
2022-08-08T13:59:48.064Z,1.27
2022-08-08T14:02:32.669Z,1.05
2022-08-08T14:05:20.422Z,1.45
2022-08-08T14:07:52.410Z,1.30
2022-08-08T14:10:33.735Z,1.23
2022-08-08T14:13:30.870Z,1.13
2022-08-08T14:16:15.881Z,1.10
2022-08-08T14:18:58.053Z,1.30
2022-08-08T14:21:48.732Z,1.48
2022-08-08T14:24:30.369Z,1.40
2022-08-08T14:26:58.146Z,1.35
2022-08-08T14:29:30.109Z,1.25
2022-08-08T14:32:09.100Z,1.02
2022-08-08T14:34:42.110Z,1.33
2022-08-08T14:37:13.314Z,1.35
2022-08-08T14:40:05.902Z,1.20
2022-08-08T14:42:54.984Z,1.40
2022-08-08T14:45:33.553Z,1.58
2022-08-08T14:48:17.652Z,1.27
2022-08-08T14:50:47.165Z,1.00
2022-08-08T14:53:15.425Z,0.77
2022-08-08T14:55:43.471Z,0.85
2022-08-08T14:58:11.669Z,0.68
2022-08-08T15:00:44.372Z,1.13
2022-08-08T15:03:14.778Z,0.70
2022-08-08T15:05:54.113Z,0.60
2022-08-08T15:08:33.564Z,0.90
2022-08-08T15:11:04.798Z,0.60
2022-08-08T15:13:40.020Z,0.70
2022-08-08T15:16:21.429Z,0.80
2022-08-08T15:18:51.270Z,0.90
2022-08-08T15:21:20.824Z,0.80
2022-08-08T15:23:51.168Z,0.80
2022-08-08T15:26:20.486Z,0.75
2022-08-08T15:28:51.010Z,0.80
2022-08-08T15:31:25.822Z,0.70
2022-08-08T15:34:29.067Z,1.08
2022-08-08T15:36:57.647Z,1.13
2022-08-08T15:39:25.716Z,0.93
2022-08-08T15:41:54.086Z,1.08
2022-08-08T15:44:22.197Z,0.80
2022-08-08T15:46:50.561Z,1.10
2022-08-08T15:49:20.625Z,1.27
2022-08-08T15:51:49.888Z,1.10
2022-08-08T15:54:18.920Z,1.02
2022-08-08T15:57:07.341Z,1.20
2022-08-08T16:00:25.501Z,1.05
2022-08-08T16:02:30.499Z,1.33
2022-08-08T16:05:00.653Z,1.10
2022-08-08T16:07:39.222Z,1.05
2022-08-08T16:13:27.173Z,1.08
2022-08-08T16:13:30.394Z,1.00
2022-08-08T16:15:57.205Z,1.20
2022-08-08T16:18:32.413Z,1.20
2022-08-08T16:21:01.119Z,1.02
2022-08-08T16:23:32.232Z,1.50
2022-08-08T16:26:12.764Z,1.55
2022-08-08T16:28:45.757Z,4.32
2022-08-08T16:31:13.457Z,3.28
2022-08-08T16:33:40.765Z,2.13
2022-08-08T16:36:11.644Z,3.22
2022-08-08T16:41:20.373Z,1.98
2022-08-08T16:43:51.491Z,1.88
2022-08-08T16:46:39.247Z,1.80
2022-08-08T16:49:09.494Z,1.45
2022-08-08T16:55:04.483Z,1.27
2022-08-08T16:55:24.121Z,1.30
2022-08-08T16:58:12.735Z,1.45
2022-08-08T17:00:08.487Z,1.13
2022-08-08T17:02:39.880Z,1.02
2022-08-08T17:05:10.207Z,1.00
2022-08-08T17:07:41.906Z,1.60
2022-08-08T17:10:11.722Z,1.30
2022-08-08T17:12:52.986Z,1.27
2022-08-08T17:15:23.146Z,1.10
2022-08-08T17:18:02.268Z,1.13
2022-08-08T17:20:32.956Z,1.27
2022-08-08T17:23:17.587Z,1.15
2022-08-08T17:25:54.193Z,1.17
2022-08-08T17:28:34.603Z,1.10
2022-08-08T17:31:39.324Z,1.40
2022-08-08T17:34:52.733Z,1.05
2022-08-08T17:37:01.108Z,1.17
2022-08-08T17:40:04.496Z,1.20
2022-08-08T17:42:19.245Z,1.60
2022-08-08T17:44:49.042Z,1.08
2022-08-08T17:47:27.298Z,1.38
2022-08-08T17:50:01.544Z,1.00
2022-08-08T17:52:35.561Z,1.17
2022-08-08T17:56:04.204Z,1.38
2022-08-08T17:57:53.600Z,1.77
2022-08-08T18:00:21.529Z,1.25
2022-08-08T18:03:09.218Z,1.85
2022-08-08T18:05:48.999Z,1.00
2022-08-08T18:08:25.227Z,1.45
2022-08-08T18:11:14.688Z,1.70
2022-08-08T18:13:48.002Z,0.98
2022-08-08T18:16:17.318Z,1.20
2022-08-08T18:18:53.996Z,1.10
2022-08-08T18:24:19.191Z,0.90
2022-08-08T18:26:53.731Z,1.13
2022-08-08T18:29:29.906Z,0.97
2022-08-08T18:32:03.344Z,1.10
2022-08-08T18:34:33.069Z,0.90
2022-08-08T18:37:04.788Z,1.35
2022-08-08T18:39:36.594Z,0.93
2022-08-08T18:42:11.598Z,1.10
2022-08-08T18:44:42.089Z,1.52
2022-08-08T18:47:09.127Z,0.95
2022-08-08T18:49:40.916Z,0.90
2022-08-08T18:52:24.322Z,1.58
2022-08-08T18:54:59.655Z,0.95
2022-08-08T18:57:41.113Z,1.08
2022-08-08T19:00:16.909Z,0.90
2022-08-08T19:02:56.544Z,1.40
2022-08-08T19:05:37.336Z,1.33
2022-08-08T19:08:23.930Z,1.10
2022-08-08T19:10:53.839Z,1.00
2022-08-08T19:13:24.508Z,1.00
2022-08-08T19:15:55.807Z,1.48
2022-08-08T19:18:33.213Z,0.90
2022-08-08T19:21:22.925Z,1.25
2022-08-08T19:23:57.648Z,0.90
2022-08-08T19:26:29.911Z,1.35
2022-08-08T19:29:01.679Z,1.55
2022-08-08T19:31:31.600Z,1.42
2022-08-08T19:34:35.715Z,0.93
2022-08-08T19:36:55.103Z,0.95
2022-08-08T19:39:23.269Z,1.10
2022-08-08T19:41:51.908Z,1.00
2022-08-08T19:44:27.084Z,0.90
2022-08-08T19:47:06.831Z,1.38
2022-08-08T19:49:36.537Z,1.15
2022-08-08T19:52:07.042Z,1.05
2022-08-08T19:54:34.265Z,1.30
2022-08-08T19:57:04.163Z,1.10
2022-08-08T19:59:36.206Z,1.30
2022-08-08T20:02:05.254Z,1.15
2022-08-08T20:04:36.065Z,1.33
2022-08-08T20:08:29.112Z,1.77
2022-08-08T20:09:56.075Z,1.45
2022-08-08T20:12:32.672Z,1.35
2022-08-08T20:15:15.085Z,1.23
2022-08-08T20:17:46.512Z,1.60
2022-08-08T20:20:19.686Z,1.20
2022-08-08T20:22:53.912Z,1.48
2022-08-08T20:27:54.307Z,1.08
2022-08-08T20:30:53.426Z,1.80
2022-08-08T20:33:19.786Z,1.40
2022-08-08T20:35:58.447Z,1.00
2022-08-08T20:38:32.091Z,0.95
2022-08-08T20:41:16.882Z,1.02
2022-08-08T20:43:49.425Z,1.10
2022-08-08T20:46:20.330Z,1.50
2022-08-08T20:48:49.200Z,1.70
2022-08-08T20:51:17.440Z,1.38
2022-08-08T20:54:00.009Z,1.75
2022-08-08T20:56:35.656Z,1.30
2022-08-08T20:59:08.963Z,1.20
2022-08-08T21:02:05.661Z,1.65
2022-08-08T21:04:27.644Z,1.15
2022-08-08T21:06:56.094Z,1.75
2022-08-08T21:09:23.622Z,1.60
2022-08-08T21:12:02.987Z,1.48
2022-08-08T21:14:34.754Z,1.35
2022-08-08T21:17:06.224Z,1.13
2022-08-08T21:19:45.303Z,1.50
2022-08-08T21:22:14.456Z,1.23
2022-08-08T21:24:53.624Z,1.48
2022-08-08T21:28:05.588Z,1.75
2022-08-08T21:30:18.878Z,2.15
2022-08-08T21:32:51.722Z,1.15
2022-08-08T21:36:16.325Z,1.40
2022-08-08T21:38:16.327Z,1.58
2022-08-08T21:40:55.909Z,1.30
2022-08-08T21:43:25.902Z,1.45
2022-08-08T21:48:03.646Z,1.65
2022-08-08T21:48:49.394Z,1.30
2022-08-08T21:51:45.834Z,1.67
2022-08-08T21:54:32.855Z,1.42
2022-08-08T21:56:56.187Z,1.30
2022-08-08T21:59:23.294Z,1.60
2022-08-08T22:01:52.455Z,1.50
2022-08-08T22:04:24.717Z,1.65
2022-08-08T22:06:53.188Z,1.90
2022-08-08T22:09:20.460Z,1.48
2022-08-08T22:12:08.794Z,1.67
2022-08-08T22:14:37.104Z,2.10
2022-08-08T22:17:04.482Z,2.20
2022-08-08T22:20:12.555Z,1.88
2022-08-08T22:22:19.289Z,2.20
2022-08-08T22:24:53.814Z,1.83
2022-08-08T22:27:38.612Z,2.42
2022-08-08T22:30:13.461Z,2.17
2022-08-08T22:32:41.913Z,2.25
2022-08-08T22:35:16.528Z,2.42
2022-08-08T22:37:54.701Z,2.20
2022-08-08T22:40:22.743Z,1.88
2022-08-08T22:42:58.966Z,1.65
2022-08-08T22:45:26.152Z,1.17
2022-08-08T22:47:53.381Z,1.23
2022-08-08T22:50:26.417Z,1.10
2022-08-08T22:54:31.460Z,1.10
2022-08-08T22:55:57.959Z,0.80
2022-08-08T22:58:33.932Z,0.90
2022-08-08T23:01:26.702Z,1.00
2022-08-08T23:03:53.490Z,0.70
2022-08-08T23:06:22.576Z,0.80
2022-08-08T23:08:56.044Z,0.70
2022-08-08T23:11:57.947Z,0.60
2022-08-08T23:14:20.701Z,0.63
2022-08-08T23:16:54.359Z,0.70
2022-08-08T23:19:26.051Z,0.47
2022-08-08T23:21:53.219Z,0.70
2022-08-08T23:24:22.768Z,0.65
2022-08-08T23:26:55.613Z,0.45
2022-08-08T23:29:29.824Z,0.50
2022-08-08T23:34:25.784Z,0.73
2022-08-08T23:37:00.620Z,0.52
2022-08-08T23:39:41.859Z,0.40
2022-08-08T23:42:17.045Z,0.47
2022-08-08T23:44:45.098Z,0.60
2022-08-08T23:49:00.788Z,0.45
2022-08-08T23:50:01.050Z,0.50
2022-08-08T23:52:31.120Z,0.52
2022-08-08T23:55:07.317Z,0.60
2022-08-08T23:57:53.180Z,0.52
